sensor_id;sensor_type;location;lat;lon;timestamp;P1;durP1;ratioP1;P2;durP2;ratioP2
25279;SDS011;13225;47.804;12.116;2022-12-29T00:01:39;3.65;;;2.30;;
25279;SDS011;13225;47.804;12.116;2022-12-29T00:04:05;3.45;;;2.03;;
25279;SDS011;13225;47.804;12.116;2022-12-29T00:06:31;4.55;;;2.60;;
25279;SDS011;13225;47.804;12.116;2022-12-29T00:08:57;3.83;;;2.50;;
25279;SDS011;13225;47.804;12.116;2022-12-29T00:11:23;5.80;;;2.90;;
25279;SDS011;13225;47.804;12.116;2022-12-29T00:13:51;4.18;;;2.03;;
25279;SDS011;13225;47.804;12.116;2022-12-29T00:16:35;2.95;;;2.00;;
25279;SDS011;13225;47.804;12.116;2022-12-29T00:19:02;3.80;;;2.40;;
25279;SDS011;13225;47.804;12.116;2022-12-29T00:21:28;4.57;;;2.70;;
25279;SDS011;13225;47.804;12.116;2022-12-29T00:24:14;4.57;;;2.70;;
25279;SDS011;13225;47.804;12.116;2022-12-29T00:29:48;4.85;;;2.78;;
25279;SDS011;13225;47.804;12.116;2022-12-29T00:32:32;4.60;;;2.58;;
25279;SDS011;13225;47.804;12.116;2022-12-29T00:35:25;3.83;;;2.33;;
25279;SDS011;13225;47.804;12.116;2022-12-29T00:37:57;5.15;;;2.90;;
25279;SDS011;13225;47.804;12.116;2022-12-29T00:40:45;6.78;;;2.85;;
25279;SDS011;13225;47.804;12.116;2022-12-29T00:43:29;3.70;;;2.13;;
25279;SDS011;13225;47.804;12.116;2022-12-29T00:46:13;5.30;;;3.00;;
25279;SDS011;13225;47.804;12.116;2022-12-29T00:48:39;5.47;;;3.13;;
25279;SDS011;13225;47.804;12.116;2022-12-29T00:51:23;4.72;;;2.85;;
25279;SDS011;13225;47.804;12.116;2022-12-29T00:53:49;3.95;;;2.70;;
25279;SDS011;13225;47.804;12.116;2022-12-29T00:56:14;4.80;;;2.72;;
25279;SDS011;13225;47.804;12.116;2022-12-29T00:58:40;4.28;;;2.50;;
25279;SDS011;13225;47.804;12.116;2022-12-29T01:01:06;3.92;;;2.80;;
25279;SDS011;13225;47.804;12.116;2022-12-29T01:03:34;4.60;;;2.78;;
25279;SDS011;13225;47.804;12.116;2022-12-29T01:06:01;3.65;;;2.80;;
25279;SDS011;13225;47.804;12.116;2022-12-29T01:08:32;4.68;;;2.70;;
25279;SDS011;13225;47.804;12.116;2022-12-29T01:10:58;3.45;;;2.47;;
25279;SDS011;13225;47.804;12.116;2022-12-29T01:13:25;2.55;;;2.28;;
25279;SDS011;13225;47.804;12.116;2022-12-29T01:15:51;3.67;;;2.75;;
25279;SDS011;13225;47.804;12.116;2022-12-29T01:18:18;5.10;;;2.47;;
25279;SDS011;13225;47.804;12.116;2022-12-29T01:20:43;5.05;;;2.72;;
25279;SDS011;13225;47.804;12.116;2022-12-29T01:23:09;3.85;;;2.40;;
25279;SDS011;13225;47.804;12.116;2022-12-29T01:25:35;3.67;;;2.38;;
25279;SDS011;13225;47.804;12.116;2022-12-29T01:28:00;3.17;;;2.10;;
25279;SDS011;13225;47.804;12.116;2022-12-29T01:30:26;4.53;;;2.50;;
25279;SDS011;13225;47.804;12.116;2022-12-29T01:32:52;8.07;;;2.63;;
25279;SDS011;13225;47.804;12.116;2022-12-29T01:35:17;4.00;;;2.38;;
25279;SDS011;13225;47.804;12.116;2022-12-29T01:37:43;4.38;;;2.53;;
25279;SDS011;13225;47.804;12.116;2022-12-29T01:40:11;3.47;;;2.03;;
25279;SDS011;13225;47.804;12.116;2022-12-29T01:42:37;4.18;;;2.20;;
25279;SDS011;13225;47.804;12.116;2022-12-29T01:45:04;5.82;;;2.58;;
25279;SDS011;13225;47.804;12.116;2022-12-29T01:47:38;2.35;;;2.05;;
25279;SDS011;13225;47.804;12.116;2022-12-29T01:50:20;4.30;;;2.15;;
25279;SDS011;13225;47.804;12.116;2022-12-29T01:53:20;3.17;;;1.92;;
25279;SDS011;13225;47.804;12.116;2022-12-29T01:55:53;3.47;;;2.40;;
25279;SDS011;13225;47.804;12.116;2022-12-29T01:58:22;4.07;;;2.00;;
25279;SDS011;13225;47.804;12.116;2022-12-29T02:00:50;3.65;;;2.03;;
25279;SDS011;13225;47.804;12.116;2022-12-29T02:03:16;4.20;;;2.08;;
25279;SDS011;13225;47.804;12.116;2022-12-29T02:08:20;4.28;;;2.40;;
25279;SDS011;13225;47.804;12.116;2022-12-29T02:10:49;3.80;;;1.90;;
25279;SDS011;13225;47.804;12.116;2022-12-29T02:13:15;2.80;;;2.10;;
25279;SDS011;13225;47.804;12.116;2022-12-29T02:41:06;3.92;;;1.98;;
25279;SDS011;13225;47.804;12.116;2022-12-29T02:46:28;3.25;;;2.20;;
25279;SDS011;13225;47.804;12.116;2022-12-29T02:51:33;5.25;;;2.00;;
25279;SDS011;13225;47.804;12.116;2022-12-29T02:54:05;3.85;;;2.00;;
25279;SDS011;13225;47.804;12.116;2022-12-29T02:56:49;4.13;;;2.20;;
25279;SDS011;13225;47.804;12.116;2022-12-29T02:59:15;4.22;;;2.28;;
25279;SDS011;13225;47.804;12.116;2022-12-29T03:01:55;3.15;;;2.10;;
25279;SDS011;13225;47.804;12.116;2022-12-29T03:07:38;3.65;;;2.25;;
25279;SDS011;13225;47.804;12.116;2022-12-29T03:12:49;4.00;;;2.40;;
25279;SDS011;13225;47.804;12.116;2022-12-29T03:15:55;2.70;;;1.95;;
25279;SDS011;13225;47.804;12.116;2022-12-29T03:21:05;4.63;;;2.20;;
25279;SDS011;13225;47.804;12.116;2022-12-29T03:23:36;2.95;;;1.95;;
25279;SDS011;13225;47.804;12.116;2022-12-29T03:26:05;3.15;;;1.90;;
25279;SDS011;13225;47.804;12.116;2022-12-29T03:28:44;4.50;;;2.60;;
25279;SDS011;13225;47.804;12.116;2022-12-29T03:31:14;4.63;;;2.47;;
25279;SDS011;13225;47.804;12.116;2022-12-29T03:33:41;3.60;;;2.42;;
25279;SDS011;13225;47.804;12.116;2022-12-29T03:36:12;4.43;;;2.30;;
25279;SDS011;13225;47.804;12.116;2022-12-29T03:38:55;3.85;;;2.30;;
25279;SDS011;13225;47.804;12.116;2022-12-29T03:41:28;4.05;;;2.40;;
25279;SDS011;13225;47.804;12.116;2022-12-29T03:43:56;5.22;;;2.58;;
25279;SDS011;13225;47.804;12.116;2022-12-29T03:46:22;3.03;;;2.13;;
25279;SDS011;13225;47.804;12.116;2022-12-29T03:48:47;3.45;;;2.22;;
25279;SDS011;13225;47.804;12.116;2022-12-29T03:51:13;4.78;;;2.63;;
25279;SDS011;13225;47.804;12.116;2022-12-29T03:53:40;2.95;;;2.17;;
25279;SDS011;13225;47.804;12.116;2022-12-29T03:56:05;2.28;;;2.08;;
25279;SDS011;13225;47.804;12.116;2022-12-29T03:58:31;3.25;;;2.40;;
25279;SDS011;13225;47.804;12.116;2022-12-29T04:00:57;4.00;;;3.05;;
25279;SDS011;13225;47.804;12.116;2022-12-29T04:03:22;3.38;;;2.42;;
25279;SDS011;13225;47.804;12.116;2022-12-29T04:05:48;4.05;;;1.58;;
25279;SDS011;13225;47.804;12.116;2022-12-29T04:08:13;3.55;;;2.03;;
25279;SDS011;13225;47.804;12.116;2022-12-29T04:10:39;2.65;;;1.98;;
25279;SDS011;13225;47.804;12.116;2022-12-29T04:13:05;2.80;;;1.90;;
25279;SDS011;13225;47.804;12.116;2022-12-29T04:15:30;2.40;;;2.00;;
25279;SDS011;13225;47.804;12.116;2022-12-29T04:17:56;3.13;;;1.92;;
25279;SDS011;13225;47.804;12.116;2022-12-29T04:20:22;3.67;;;1.85;;
25279;SDS011;13225;47.804;12.116;2022-12-29T04:23:06;4.30;;;2.08;;
25279;SDS011;13225;47.804;12.116;2022-12-29T04:25:32;2.40;;;2.00;;
25279;SDS011;13225;47.804;12.116;2022-12-29T04:27:58;4.10;;;2.10;;
25279;SDS011;13225;47.804;12.116;2022-12-29T04:30:25;2.95;;;1.77;;
25279;SDS011;13225;47.804;12.116;2022-12-29T04:32:51;3.50;;;2.05;;
25279;SDS011;13225;47.804;12.116;2022-12-29T04:35:16;4.60;;;2.10;;
25279;SDS011;13225;47.804;12.116;2022-12-29T04:37:42;4.55;;;2.35;;
25279;SDS011;13225;47.804;12.116;2022-12-29T04:40:08;3.35;;;1.95;;
25279;SDS011;13225;47.804;12.116;2022-12-29T04:42:34;4.10;;;1.90;;
25279;SDS011;13225;47.804;12.116;2022-12-29T04:45:00;3.00;;;2.00;;
25279;SDS011;13225;47.804;12.116;2022-12-29T04:47:26;4.30;;;2.20;;
25279;SDS011;13225;47.804;12.116;2022-12-29T04:49:52;2.38;;;1.88;;
25279;SDS011;13225;47.804;12.116;2022-12-29T04:52:17;2.50;;;1.85;;
25279;SDS011;13225;47.804;12.116;2022-12-29T04:54:43;3.28;;;2.13;;
25279;SDS011;13225;47.804;12.116;2022-12-29T04:57:09;2.95;;;1.70;;
25279;SDS011;13225;47.804;12.116;2022-12-29T04:59:34;3.00;;;1.98;;
25279;SDS011;13225;47.804;12.116;2022-12-29T05:02:00;2.28;;;1.90;;
25279;SDS011;13225;47.804;12.116;2022-12-29T05:04:25;2.75;;;1.98;;
25279;SDS011;13225;47.804;12.116;2022-12-29T05:06:51;2.25;;;1.88;;
25279;SDS011;13225;47.804;12.116;2022-12-29T05:09:17;3.50;;;1.70;;
25279;SDS011;13225;47.804;12.116;2022-12-29T05:11:42;3.42;;;1.50;;
25279;SDS011;13225;47.804;12.116;2022-12-29T05:14:08;3.22;;;1.90;;
25279;SDS011;13225;47.804;12.116;2022-12-29T05:16:33;2.63;;;2.10;;
25279;SDS011;13225;47.804;12.116;2022-12-29T05:18:59;3.53;;;2.10;;
25279;SDS011;13225;47.804;12.116;2022-12-29T05:21:24;3.60;;;2.20;;
25279;SDS011;13225;47.804;12.116;2022-12-29T05:23:50;3.42;;;2.20;;
25279;SDS011;13225;47.804;12.116;2022-12-29T05:26:16;2.88;;;1.90;;
25279;SDS011;13225;47.804;12.116;2022-12-29T05:28:41;2.10;;;1.60;;
25279;SDS011;13225;47.804;12.116;2022-12-29T05:31:07;2.47;;;1.75;;
25279;SDS011;13225;47.804;12.116;2022-12-29T05:33:32;2.85;;;1.70;;
25279;SDS011;13225;47.804;12.116;2022-12-29T05:36:03;3.83;;;1.77;;
25279;SDS011;13225;47.804;12.116;2022-12-29T05:38:29;2.10;;;1.70;;
25279;SDS011;13225;47.804;12.116;2022-12-29T05:40:55;2.58;;;1.88;;
25279;SDS011;13225;47.804;12.116;2022-12-29T05:43:20;2.35;;;1.80;;
25279;SDS011;13225;47.804;12.116;2022-12-29T05:45:48;2.72;;;1.98;;
25279;SDS011;13225;47.804;12.116;2022-12-29T05:48:14;2.33;;;1.30;;
25279;SDS011;13225;47.804;12.116;2022-12-29T05:50:40;2.88;;;2.10;;
25279;SDS011;13225;47.804;12.116;2022-12-29T05:53:06;3.55;;;2.03;;
25279;SDS011;13225;47.804;12.116;2022-12-29T05:55:31;3.30;;;1.88;;
25279;SDS011;13225;47.804;12.116;2022-12-29T05:57:58;2.63;;;1.75;;
25279;SDS011;13225;47.804;12.116;2022-12-29T06:00:23;2.85;;;1.67;;
25279;SDS011;13225;47.804;12.116;2022-12-29T06:02:49;2.90;;;1.70;;
25279;SDS011;13225;47.804;12.116;2022-12-29T06:05:15;2.15;;;1.67;;
25279;SDS011;13225;47.804;12.116;2022-12-29T06:07:40;3.00;;;1.90;;
25279;SDS011;13225;47.804;12.116;2022-12-29T06:10:06;2.05;;;1.70;;
25279;SDS011;13225;47.804;12.116;2022-12-29T06:12:32;2.72;;;1.90;;
25279;SDS011;13225;47.804;12.116;2022-12-29T06:14:57;2.85;;;1.73;;
25279;SDS011;13225;47.804;12.116;2022-12-29T06:17:23;3.25;;;2.00;;
25279;SDS011;13225;47.804;12.116;2022-12-29T06:19:48;2.75;;;2.00;;
25279;SDS011;13225;47.804;12.116;2022-12-29T06:22:14;4.05;;;2.15;;
25279;SDS011;13225;47.804;12.116;2022-12-29T06:24:40;3.30;;;2.38;;
25279;SDS011;13225;47.804;12.116;2022-12-29T06:27:05;2.17;;;1.63;;
25279;SDS011;13225;47.804;12.116;2022-12-29T06:29:31;5.38;;;2.15;;
25279;SDS011;13225;47.804;12.116;2022-12-29T06:31:57;2.75;;;1.88;;
25279;SDS011;13225;47.804;12.116;2022-12-29T06:34:26;4.57;;;1.95;;
25279;SDS011;13225;47.804;12.116;2022-12-29T06:36:51;6.28;;;2.08;;
25279;SDS011;13225;47.804;12.116;2022-12-29T06:39:17;2.40;;;1.75;;
25279;SDS011;13225;47.804;12.116;2022-12-29T06:41:42;2.45;;;1.67;;
25279;SDS011;13225;47.804;12.116;2022-12-29T06:44:08;2.05;;;1.73;;
25279;SDS011;13225;47.804;12.116;2022-12-29T06:46:34;2.95;;;1.70;;
25279;SDS011;13225;47.804;12.116;2022-12-29T06:48:59;2.83;;;1.63;;
25279;SDS011;13225;47.804;12.116;2022-12-29T06:51:25;2.30;;;1.73;;
25279;SDS011;13225;47.804;12.116;2022-12-29T06:53:50;3.25;;;1.80;;
25279;SDS011;13225;47.804;12.116;2022-12-29T06:56:16;2.13;;;1.58;;
25279;SDS011;13225;47.804;12.116;2022-12-29T06:58:41;2.88;;;1.90;;
25279;SDS011;13225;47.804;12.116;2022-12-29T07:01:07;2.45;;;1.70;;
25279;SDS011;13225;47.804;12.116;2022-12-29T07:03:33;4.65;;;2.05;;
25279;SDS011;13225;47.804;12.116;2022-12-29T07:05:58;4.47;;;2.08;;
25279;SDS011;13225;47.804;12.116;2022-12-29T07:08:24;2.70;;;1.90;;
25279;SDS011;13225;47.804;12.116;2022-12-29T07:10:49;4.10;;;1.45;;
25279;SDS011;13225;47.804;12.116;2022-12-29T07:13:15;2.35;;;1.55;;
25279;SDS011;13225;47.804;12.116;2022-12-29T07:15:41;3.75;;;1.80;;
25279;SDS011;13225;47.804;12.116;2022-12-29T07:18:13;3.20;;;1.80;;
25279;SDS011;13225;47.804;12.116;2022-12-29T07:20:39;2.75;;;1.67;;
25279;SDS011;13225;47.804;12.116;2022-12-29T07:23:04;2.35;;;1.52;;
25279;SDS011;13225;47.804;12.116;2022-12-29T07:25:30;2.42;;;1.70;;
25279;SDS011;13225;47.804;12.116;2022-12-29T07:27:56;2.13;;;1.83;;
25279;SDS011;13225;47.804;12.116;2022-12-29T07:30:21;3.15;;;1.80;;
25279;SDS011;13225;47.804;12.116;2022-12-29T07:32:47;3.78;;;1.90;;
25279;SDS011;13225;47.804;12.116;2022-12-29T07:35:12;3.33;;;1.92;;
25279;SDS011;13225;47.804;12.116;2022-12-29T07:37:38;3.28;;;2.10;;
25279;SDS011;13225;47.804;12.116;2022-12-29T07:40:05;3.20;;;1.80;;
25279;SDS011;13225;47.804;12.116;2022-12-29T07:42:31;2.00;;;1.80;;
25279;SDS011;13225;47.804;12.116;2022-12-29T07:44:56;4.05;;;2.00;;
25279;SDS011;13225;47.804;12.116;2022-12-29T07:47:22;2.13;;;1.60;;
25279;SDS011;13225;47.804;12.116;2022-12-29T07:49:48;2.70;;;2.00;;
25279;SDS011;13225;47.804;12.116;2022-12-29T07:52:14;3.00;;;1.80;;
25279;SDS011;13225;47.804;12.116;2022-12-29T07:54:40;2.75;;;1.42;;
25279;SDS011;13225;47.804;12.116;2022-12-29T07:57:05;2.63;;;1.75;;
25279;SDS011;13225;47.804;12.116;2022-12-29T07:59:31;4.10;;;1.77;;
25279;SDS011;13225;47.804;12.116;2022-12-29T08:01:57;2.35;;;1.73;;
25279;SDS011;13225;47.804;12.116;2022-12-29T08:04:23;4.22;;;1.80;;
25279;SDS011;13225;47.804;12.116;2022-12-29T08:06:57;3.15;;;1.60;;
25279;SDS011;13225;47.804;12.116;2022-12-29T08:09:23;2.05;;;1.70;;
25279;SDS011;13225;47.804;12.116;2022-12-29T08:11:49;2.95;;;1.77;;
25279;SDS011;13225;47.804;12.116;2022-12-29T08:14:14;5.45;;;2.28;;
25279;SDS011;13225;47.804;12.116;2022-12-29T08:16:40;3.22;;;1.83;;
25279;SDS011;13225;47.804;12.116;2022-12-29T08:19:05;2.25;;;1.70;;
25279;SDS011;13225;47.804;12.116;2022-12-29T08:21:31;3.25;;;1.80;;
25279;SDS011;13225;47.804;12.116;2022-12-29T08:23:57;1.58;;;1.30;;
25279;SDS011;13225;47.804;12.116;2022-12-29T08:26:34;3.15;;;1.83;;
25279;SDS011;13225;47.804;12.116;2022-12-29T08:28:59;2.28;;;1.85;;
25279;SDS011;13225;47.804;12.116;2022-12-29T08:31:25;2.17;;;1.83;;
25279;SDS011;13225;47.804;12.116;2022-12-29T08:33:50;2.75;;;2.08;;
25279;SDS011;13225;47.804;12.116;2022-12-29T08:36:16;2.75;;;1.85;;
25279;SDS011;13225;47.804;12.116;2022-12-29T08:38:42;2.53;;;1.83;;
25279;SDS011;13225;47.804;12.116;2022-12-29T08:41:07;1.88;;;1.67;;
25279;SDS011;13225;47.804;12.116;2022-12-29T08:43:33;5.43;;;1.90;;
25279;SDS011;13225;47.804;12.116;2022-12-29T08:46:01;2.42;;;1.90;;
25279;SDS011;13225;47.804;12.116;2022-12-29T08:48:26;3.03;;;1.60;;
25279;SDS011;13225;47.804;12.116;2022-12-29T08:50:52;4.03;;;1.92;;
25279;SDS011;13225;47.804;12.116;2022-12-29T08:53:18;2.53;;;1.70;;
25279;SDS011;13225;47.804;12.116;2022-12-29T08:55:45;3.55;;;1.83;;
25279;SDS011;13225;47.804;12.116;2022-12-29T08:58:11;2.95;;;1.90;;
25279;SDS011;13225;47.804;12.116;2022-12-29T09:00:39;2.65;;;1.90;;
25279;SDS011;13225;47.804;12.116;2022-12-29T09:03:05;2.10;;;1.60;;
25279;SDS011;13225;47.804;12.116;2022-12-29T09:05:31;3.58;;;1.92;;
25279;SDS011;13225;47.804;12.116;2022-12-29T09:07:57;5.07;;;2.25;;
25279;SDS011;13225;47.804;12.116;2022-12-29T09:10:22;3.03;;;1.40;;
25279;SDS011;13225;47.804;12.116;2022-12-29T09:12:48;2.97;;;1.85;;
25279;SDS011;13225;47.804;12.116;2022-12-29T09:15:14;2.90;;;1.85;;
25279;SDS011;13225;47.804;12.116;2022-12-29T09:17:42;4.57;;;1.98;;
25279;SDS011;13225;47.804;12.116;2022-12-29T09:20:18;3.30;;;2.10;;
25279;SDS011;13225;47.804;12.116;2022-12-29T09:22:44;4.28;;;2.40;;
25279;SDS011;13225;47.804;12.116;2022-12-29T09:25:10;2.65;;;1.75;;
25279;SDS011;13225;47.804;12.116;2022-12-29T09:27:36;2.78;;;1.92;;
25279;SDS011;13225;47.804;12.116;2022-12-29T09:30:06;3.05;;;2.03;;
25279;SDS011;13225;47.804;12.116;2022-12-29T09:32:34;3.20;;;1.98;;
25279;SDS011;13225;47.804;12.116;2022-12-29T09:35:00;2.25;;;1.55;;
25279;SDS011;13225;47.804;12.116;2022-12-29T09:37:25;4.13;;;1.90;;
25279;SDS011;13225;47.804;12.116;2022-12-29T09:39:51;4.07;;;1.98;;
25279;SDS011;13225;47.804;12.116;2022-12-29T09:45:18;3.30;;;2.00;;
25279;SDS011;13225;47.804;12.116;2022-12-29T09:47:54;3.33;;;2.25;;
25279;SDS011;13225;47.804;12.116;2022-12-29T09:50:23;2.63;;;1.83;;
25279;SDS011;13225;47.804;12.116;2022-12-29T09:52:58;2.90;;;1.90;;
25279;SDS011;13225;47.804;12.116;2022-12-29T09:55:38;2.92;;;2.00;;
25279;SDS011;13225;47.804;12.116;2022-12-29T10:01:32;3.15;;;1.80;;
25279;SDS011;13225;47.804;12.116;2022-12-29T10:04:31;4.10;;;1.93;;
25279;SDS011;13225;47.804;12.116;2022-12-29T10:06:59;3.28;;;1.95;;
25279;SDS011;13225;47.804;12.116;2022-12-29T10:15:03;3.55;;;1.77;;
25279;SDS011;13225;47.804;12.116;2022-12-29T10:25:44;3.05;;;1.98;;
25279;SDS011;13225;47.804;12.116;2022-12-29T10:28:16;3.50;;;2.47;;
25279;SDS011;13225;47.804;12.116;2022-12-29T10:33:24;2.65;;;1.77;;
25279;SDS011;13225;47.804;12.116;2022-12-29T10:35:56;3.88;;;1.90;;
25279;SDS011;13225;47.804;12.116;2022-12-29T10:41:15;4.70;;;1.85;;
25279;SDS011;13225;47.804;12.116;2022-12-29T10:43:51;3.17;;;2.20;;
25279;SDS011;13225;47.804;12.116;2022-12-29T10:46:20;4.32;;;1.98;;
25279;SDS011;13225;47.804;12.116;2022-12-29T10:48:50;4.28;;;2.10;;
25279;SDS011;13225;47.804;12.116;2022-12-29T10:51:23;3.70;;;2.20;;
25279;SDS011;13225;47.804;12.116;2022-12-29T10:54:03;2.20;;;2.00;;
25279;SDS011;13225;47.804;12.116;2022-12-29T10:57:01;3.17;;;2.10;;
25279;SDS011;13225;47.804;12.116;2022-12-29T10:59:31;3.08;;;1.77;;
25279;SDS011;13225;47.804;12.116;2022-12-29T11:04:55;5.40;;;2.20;;
25279;SDS011;13225;47.804;12.116;2022-12-29T11:07:46;4.43;;;2.20;;
25279;SDS011;13225;47.804;12.116;2022-12-29T11:10:15;2.20;;;1.60;;
25279;SDS011;13225;47.804;12.116;2022-12-29T11:12:41;3.35;;;2.03;;
25279;SDS011;13225;47.804;12.116;2022-12-29T11:15:25;2.70;;;1.60;;
25279;SDS011;13225;47.804;12.116;2022-12-29T11:17:52;2.45;;;1.45;;
25279;SDS011;13225;47.804;12.116;2022-12-29T11:23:02;2.30;;;1.60;;
25279;SDS011;13225;47.804;12.116;2022-12-29T11:25:29;2.55;;;1.90;;
25279;SDS011;13225;47.804;12.116;2022-12-29T11:27:55;3.25;;;1.55;;
25279;SDS011;13225;47.804;12.116;2022-12-29T11:30:28;2.67;;;1.83;;
25279;SDS011;13225;47.804;12.116;2022-12-29T11:32:56;2.33;;;2.03;;
25279;SDS011;13225;47.804;12.116;2022-12-29T11:35:29;3.47;;;1.75;;
25279;SDS011;13225;47.804;12.116;2022-12-29T11:37:57;5.57;;;2.22;;
25279;SDS011;13225;47.804;12.116;2022-12-29T11:40:23;2.80;;;1.48;;
25279;SDS011;13225;47.804;12.116;2022-12-29T11:43:00;5.43;;;1.60;;
25279;SDS011;13225;47.804;12.116;2022-12-29T11:45:31;4.20;;;1.80;;
25279;SDS011;13225;47.804;12.116;2022-12-29T11:50:41;3.53;;;1.88;;
25279;SDS011;13225;47.804;12.116;2022-12-29T11:53:20;3.75;;;1.73;;
25279;SDS011;13225;47.804;12.116;2022-12-29T11:55:55;4.45;;;2.00;;
25279;SDS011;13225;47.804;12.116;2022-12-29T11:58:39;4.18;;;1.90;;
25279;SDS011;13225;47.804;12.116;2022-12-29T12:01:13;3.95;;;2.00;;
25279;SDS011;13225;47.804;12.116;2022-12-29T12:03:44;2.38;;;1.70;;
25279;SDS011;13225;47.804;12.116;2022-12-29T12:06:32;3.10;;;2.00;;
25279;SDS011;13225;47.804;12.116;2022-12-29T12:09:04;3.55;;;2.25;;
25279;SDS011;13225;47.804;12.116;2022-12-29T12:11:37;2.05;;;1.73;;
25279;SDS011;13225;47.804;12.116;2022-12-29T12:14:11;1.70;;;1.60;;
25279;SDS011;13225;47.804;12.116;2022-12-29T12:16:46;3.60;;;2.10;;
25279;SDS011;13225;47.804;12.116;2022-12-29T12:25:03;3.03;;;2.25;;
25279;SDS011;13225;47.804;12.116;2022-12-29T12:30:17;2.55;;;1.90;;
25279;SDS011;13225;47.804;12.116;2022-12-29T12:35:40;2.08;;;1.80;;
25279;SDS011;13225;47.804;12.116;2022-12-29T12:53:07;5.25;;;2.08;;
25279;SDS011;13225;47.804;12.116;2022-12-29T12:59:13;2.90;;;1.85;;
25279;SDS011;13225;47.804;12.116;2022-12-29T13:10:02;3.63;;;1.70;;
25279;SDS011;13225;47.804;12.116;2022-12-29T13:17:57;3.55;;;1.90;;
25279;SDS011;13225;47.804;12.116;2022-12-29T13:20:46;4.65;;;1.80;;
25279;SDS011;13225;47.804;12.116;2022-12-29T13:28:49;3.25;;;2.10;;
25279;SDS011;13225;47.804;12.116;2022-12-29T13:31:41;2.38;;;1.60;;
25279;SDS011;13225;47.804;12.116;2022-12-29T13:34:22;3.97;;;2.03;;
25279;SDS011;13225;47.804;12.116;2022-12-29T13:37:02;4.60;;;2.17;;
25279;SDS011;13225;47.804;12.116;2022-12-29T13:39:34;2.63;;;1.60;;
25279;SDS011;13225;47.804;12.116;2022-12-29T13:42:07;3.28;;;1.48;;
25279;SDS011;13225;47.804;12.116;2022-12-29T13:44:34;2.15;;;1.60;;
25279;SDS011;13225;47.804;12.116;2022-12-29T13:49:58;3.33;;;1.88;;
25279;SDS011;13225;47.804;12.116;2022-12-29T13:52:31;3.47;;;2.00;;
25279;SDS011;13225;47.804;12.116;2022-12-29T13:55:20;2.88;;;2.05;;
25279;SDS011;13225;47.804;12.116;2022-12-29T13:58:07;3.20;;;2.10;;
25279;SDS011;13225;47.804;12.116;2022-12-29T14:00:53;5.57;;;2.22;;
25279;SDS011;13225;47.804;12.116;2022-12-29T14:03:47;2.80;;;2.03;;
25279;SDS011;13225;47.804;12.116;2022-12-29T14:06:22;3.45;;;1.85;;
25279;SDS011;13225;47.804;12.116;2022-12-29T14:08:56;3.38;;;1.63;;
25279;SDS011;13225;47.804;12.116;2022-12-29T14:11:31;3.45;;;1.70;;
25279;SDS011;13225;47.804;12.116;2022-12-29T14:14:11;1.67;;;1.58;;
25279;SDS011;13225;47.804;12.116;2022-12-29T14:16:56;3.60;;;1.90;;
25279;SDS011;13225;47.804;12.116;2022-12-29T14:19:36;3.03;;;1.80;;
25279;SDS011;13225;47.804;12.116;2022-12-29T14:22:08;2.80;;;2.00;;
25279;SDS011;13225;47.804;12.116;2022-12-29T14:27:22;1.80;;;1.65;;
25279;SDS011;13225;47.804;12.116;2022-12-29T14:34:52;3.90;;;1.92;;
25279;SDS011;13225;47.804;12.116;2022-12-29T14:37:28;3.50;;;1.88;;
25279;SDS011;13225;47.804;12.116;2022-12-29T14:42:38;3.00;;;1.88;;
25279;SDS011;13225;47.804;12.116;2022-12-29T14:47:36;2.45;;;1.90;;
25279;SDS011;13225;47.804;12.116;2022-12-29T14:57:51;2.55;;;1.98;;
25279;SDS011;13225;47.804;12.116;2022-12-29T15:00:25;3.08;;;2.05;;
25279;SDS011;13225;47.804;12.116;2022-12-29T15:03:05;3.88;;;2.30;;
25279;SDS011;13225;47.804;12.116;2022-12-29T15:05:51;6.03;;;2.55;;
25279;SDS011;13225;47.804;12.116;2022-12-29T15:08:20;3.10;;;1.90;;
25279;SDS011;13225;47.804;12.116;2022-12-29T15:13:25;3.42;;;1.88;;
25279;SDS011;13225;47.804;12.116;2022-12-29T15:16:04;3.53;;;2.15;;
25279;SDS011;13225;47.804;12.116;2022-12-29T15:18:45;4.70;;;2.85;;
25279;SDS011;13225;47.804;12.116;2022-12-29T15:21:11;2.45;;;1.92;;
25279;SDS011;13225;47.804;12.116;2022-12-29T15:23:44;2.13;;;1.70;;
25279;SDS011;13225;47.804;12.116;2022-12-29T15:26:10;3.38;;;1.90;;
25279;SDS011;13225;47.804;12.116;2022-12-29T15:28:41;4.03;;;2.28;;
25279;SDS011;13225;47.804;12.116;2022-12-29T15:31:11;5.82;;;2.90;;
25279;SDS011;13225;47.804;12.116;2022-12-29T15:33:39;4.45;;;2.53;;
25279;SDS011;13225;47.804;12.116;2022-12-29T15:36:10;5.25;;;2.53;;
25279;SDS011;13225;47.804;12.116;2022-12-29T15:38:38;5.40;;;2.60;;
25279;SDS011;13225;47.804;12.116;2022-12-29T15:41:05;5.28;;;2.20;;
25279;SDS011;13225;47.804;12.116;2022-12-29T15:43:47;3.33;;;1.92;;
25279;SDS011;13225;47.804;12.116;2022-12-29T15:46:29;3.55;;;2.20;;
25279;SDS011;13225;47.804;12.116;2022-12-29T15:48:55;4.22;;;2.20;;
25279;SDS011;13225;47.804;12.116;2022-12-29T15:51:24;4.90;;;2.10;;
25279;SDS011;13225;47.804;12.116;2022-12-29T15:53:57;3.53;;;2.35;;
25279;SDS011;13225;47.804;12.116;2022-12-29T15:56:23;5.63;;;2.50;;
25279;SDS011;13225;47.804;12.116;2022-12-29T15:58:50;4.20;;;1.95;;
25279;SDS011;13225;47.804;12.116;2022-12-29T16:03:59;3.80;;;2.03;;
25279;SDS011;13225;47.804;12.116;2022-12-29T16:06:37;4.85;;;2.92;;
25279;SDS011;13225;47.804;12.116;2022-12-29T16:09:17;8.35;;;3.80;;
25279;SDS011;13225;47.804;12.116;2022-12-29T16:11:50;11.82;;;5.53;;
25279;SDS011;13225;47.804;12.116;2022-12-29T16:14:20;6.85;;;3.58;;
25279;SDS011;13225;47.804;12.116;2022-12-29T16:16:51;5.63;;;2.42;;
25279;SDS011;13225;47.804;12.116;2022-12-29T16:21:53;4.63;;;2.15;;
25279;SDS011;13225;47.804;12.116;2022-12-29T16:24:21;2.63;;;1.88;;
25279;SDS011;13225;47.804;12.116;2022-12-29T16:26:51;3.65;;;2.13;;
25279;SDS011;13225;47.804;12.116;2022-12-29T16:29:23;5.05;;;2.10;;
25279;SDS011;13225;47.804;12.116;2022-12-29T16:31:50;4.20;;;1.92;;
25279;SDS011;13225;47.804;12.116;2022-12-29T16:34:22;6.88;;;2.40;;
25279;SDS011;13225;47.804;12.116;2022-12-29T16:36:55;2.67;;;1.90;;
25279;SDS011;13225;47.804;12.116;2022-12-29T16:39:36;5.13;;;2.38;;
25279;SDS011;13225;47.804;12.116;2022-12-29T16:47:41;4.30;;;2.50;;
25279;SDS011;13225;47.804;12.116;2022-12-29T16:50:11;5.68;;;3.00;;
25279;SDS011;13225;47.804;12.116;2022-12-29T16:52:41;5.20;;;2.70;;
25279;SDS011;13225;47.804;12.116;2022-12-29T16:55:14;7.60;;;2.75;;
25279;SDS011;13225;47.804;12.116;2022-12-29T16:57:42;6.18;;;2.25;;
25279;SDS011;13225;47.804;12.116;2022-12-29T17:00:33;5.38;;;2.45;;
25279;SDS011;13225;47.804;12.116;2022-12-29T17:02:59;5.07;;;2.30;;
25279;SDS011;13225;47.804;12.116;2022-12-29T17:05:26;4.75;;;2.60;;
25279;SDS011;13225;47.804;12.116;2022-12-29T17:07:51;4.50;;;2.25;;
25279;SDS011;13225;47.804;12.116;2022-12-29T17:10:17;3.00;;;2.08;;
25279;SDS011;13225;47.804;12.116;2022-12-29T17:12:44;3.67;;;2.58;;
25279;SDS011;13225;47.804;12.116;2022-12-29T17:15:14;4.03;;;2.20;;
25279;SDS011;13225;47.804;12.116;2022-12-29T17:17:49;4.25;;;2.30;;
25279;SDS011;13225;47.804;12.116;2022-12-29T17:20:26;3.58;;;2.25;;
25279;SDS011;13225;47.804;12.116;2022-12-29T17:22:53;4.28;;;2.15;;
25279;SDS011;13225;47.804;12.116;2022-12-29T17:25:20;3.10;;;2.30;;
25279;SDS011;13225;47.804;12.116;2022-12-29T17:30:45;4.82;;;2.42;;
25279;SDS011;13225;47.804;12.116;2022-12-29T17:33:16;3.70;;;2.20;;
25279;SDS011;13225;47.804;12.116;2022-12-29T17:35:43;3.88;;;2.47;;
25279;SDS011;13225;47.804;12.116;2022-12-29T17:38:22;3.95;;;2.13;;